sensor_id;sensor_type;location;lat;lon;timestamp;pressure;altitude;pressure_sealevel;temperature;humidity
52693;BME280;68218;51.012;-1.648;2023-05-01T00:01:33;100903.84;;;11.52;87.62
52693;BME280;68218;51.012;-1.648;2023-05-01T00:03:59;100911.47;;;11.60;87.43
52693;BME280;68218;51.012;-1.648;2023-05-01T00:06:24;100908.81;;;11.65;86.75
52693;BME280;68218;51.012;-1.648;2023-05-01T00:08:50;100905.50;;;11.58;87.12
52693;BME280;68218;51.012;-1.648;2023-05-01T00:11:15;100907.72;;;11.61;87.16
52693;BME280;68218;51.012;-1.648;2023-05-01T00:13:41;100904.38;;;11.54;87.82
52693;BME280;68218;51.012;-1.648;2023-05-01T00:16:07;100902.69;;;11.48;88.54
52693;BME280;68218;51.012;-1.648;2023-05-01T00:18:33;100899.19;;;11.47;88.12
52693;BME280;68218;51.012;-1.648;2023-05-01T00:20:58;100904.63;;;11.52;87.58
52693;BME280;68218;51.012;-1.648;2023-05-01T00:23:24;100902.63;;;11.65;87.47
52693;BME280;68218;51.012;-1.648;2023-05-01T00:25:49;100905.25;;;11.59;87.48
52693;BME280;68218;51.012;-1.648;2023-05-01T00:28:17;100886.91;;;11.61;87.21
52693;BME280;68218;51.012;-1.648;2023-05-01T00:30:43;100892.56;;;11.60;86.95
52693;BME280;68218;51.012;-1.648;2023-05-01T00:33:09;100890.44;;;11.62;86.91
52693;BME280;68218;51.012;-1.648;2023-05-01T00:35:35;100889.25;;;11.53;87.26
52693;BME280;68218;51.012;-1.648;2023-05-01T00:38:00;100886.47;;;11.48;87.08
52693;BME280;68218;51.012;-1.648;2023-05-01T00:40:25;100876.19;;;11.44;86.92
52693;BME280;68218;51.012;-1.648;2023-05-01T00:42:52;100884.75;;;11.36;87.08
52693;BME280;68218;51.012;-1.648;2023-05-01T00:45:17;100878.44;;;11.31;87.17
52693;BME280;68218;51.012;-1.648;2023-05-01T00:47:43;100869.97;;;11.22;87.59
52693;BME280;68218;51.012;-1.648;2023-05-01T00:50:08;100867.28;;;11.22;87.73
52693;BME280;68218;51.012;-1.648;2023-05-01T00:52:34;100863.88;;;11.10;87.95
52693;BME280;68218;51.012;-1.648;2023-05-01T00:55:00;100862.22;;;11.09;87.87
52693;BME280;68218;51.012;-1.648;2023-05-01T00:57:26;100855.75;;;10.87;89.18
52693;BME280;68218;51.012;-1.648;2023-05-01T00:59:51;100864.34;;;10.84;88.44
52693;BME280;68218;51.012;-1.648;2023-05-01T01:02:16;100855.75;;;10.87;89.06
52693;BME280;68218;51.012;-1.648;2023-05-01T01:04:44;100855.31;;;10.74;88.01
52693;BME280;68218;51.012;-1.648;2023-05-01T01:07:22;100855.22;;;10.68;88.17
52693;BME280;68218;51.012;-1.648;2023-05-01T01:13:16;100856.00;;;10.47;88.10
52693;BME280;68218;51.012;-1.648;2023-05-01T01:18:52;100852.78;;;10.50;89.15
52693;BME280;68218;51.012;-1.648;2023-05-01T01:21:38;100848.88;;;10.58;89.64
52693;BME280;68218;51.012;-1.648;2023-05-01T01:28:08;100841.19;;;10.66;90.30
52693;BME280;68218;51.012;-1.648;2023-05-01T01:35:28;100832.09;;;10.95;89.40
52693;BME280;68218;51.012;-1.648;2023-05-01T01:38:15;100833.69;;;10.91;90.57
52693;BME280;68218;51.012;-1.648;2023-05-01T01:40:54;100822.06;;;10.90;90.94
52693;BME280;68218;51.012;-1.648;2023-05-01T01:43:22;100831.97;;;10.84;91.07
52693;BME280;68218;51.012;-1.648;2023-05-01T01:45:56;100833.78;;;10.79;90.64
52693;BME280;68218;51.012;-1.648;2023-05-01T01:48:26;100823.56;;;10.81;90.18
52693;BME280;68218;51.012;-1.648;2023-05-01T01:50:57;100830.28;;;10.78;89.60
52693;BME280;68218;51.012;-1.648;2023-05-01T01:53:24;100821.56;;;10.71;89.67
52693;BME280;68218;51.012;-1.648;2023-05-01T01:55:53;100820.44;;;10.50;89.85
52693;BME280;68218;51.012;-1.648;2023-05-01T01:58:20;100817.72;;;10.50;89.36
52693;BME280;68218;51.012;-1.648;2023-05-01T02:00:51;100804.41;;;10.43;88.67
52693;BME280;68218;51.012;-1.648;2023-05-01T02:03:18;100799.97;;;10.32;88.70
52693;BME280;68218;51.012;-1.648;2023-05-01T02:05:45;100800.81;;;10.21;88.41
52693;BME280;68218;51.012;-1.648;2023-05-01T02:08:12;100791.59;;;10.17;88.53
52693;BME280;68218;51.012;-1.648;2023-05-01T02:10:40;100795.19;;;10.05;87.98
52693;BME280;68218;51.012;-1.648;2023-05-01T02:13:07;100766.47;;;9.77;87.87
52693;BME280;68218;51.012;-1.648;2023-05-01T02:15:33;100792.91;;;9.80;87.94
52693;BME280;68218;51.012;-1.648;2023-05-01T02:18:01;100794.84;;;9.68;87.61
52693;BME280;68218;51.012;-1.648;2023-05-01T02:20:27;100793.69;;;9.64;87.71
52693;BME280;68218;51.012;-1.648;2023-05-01T02:22:55;100789.69;;;9.49;87.78
52693;BME280;68218;51.012;-1.648;2023-05-01T02:25:21;100789.59;;;9.44;88.05
52693;BME280;68218;51.012;-1.648;2023-05-01T02:27:52;100790.53;;;9.38;88.17
52693;BME280;68218;51.012;-1.648;2023-05-01T02:30:20;100786.09;;;9.32;89.78
52693;BME280;68218;51.012;-1.648;2023-05-01T02:32:45;100782.84;;;9.30;89.67
52693;BME280;68218;51.012;-1.648;2023-05-01T02:35:11;100781.03;;;9.18;91.11
52693;BME280;68218;51.012;-1.648;2023-05-01T02:37:37;100784.00;;;9.05;91.97
52693;BME280;68218;51.012;-1.648;2023-05-01T02:40:03;100794.66;;;9.00;92.37
52693;BME280;68218;51.012;-1.648;2023-05-01T02:42:30;100784.38;;;8.97;92.98
52693;BME280;68218;51.012;-1.648;2023-05-01T02:45:00;100782.34;;;9.04;92.81
52693;BME280;68218;51.012;-1.648;2023-05-01T02:47:29;100778.63;;;9.05;91.88
52693;BME280;68218;51.012;-1.648;2023-05-01T02:49:56;100784.44;;;9.14;90.81
52693;BME280;68218;51.012;-1.648;2023-05-01T02:52:23;100781.97;;;9.12;90.27
52693;BME280;68218;51.012;-1.648;2023-05-01T02:54:49;100774.16;;;9.11;89.81
52693;BME280;68218;51.012;-1.648;2023-05-01T02:57:18;100775.00;;;8.99;89.21
52693;BME280;68218;51.012;-1.648;2023-05-01T02:59:45;100781.69;;;8.97;89.16
52693;BME280;68218;51.012;-1.648;2023-05-01T03:02:10;100770.72;;;8.87;88.68
52693;BME280;68218;51.012;-1.648;2023-05-01T03:04:36;100771.53;;;8.75;88.35
52693;BME280;68218;51.012;-1.648;2023-05-01T03:07:01;100778.22;;;8.73;88.61
52693;BME280;68218;51.012;-1.648;2023-05-01T03:09:29;100779.41;;;8.65;89.16
52693;BME280;68218;51.012;-1.648;2023-05-01T03:11:55;100778.00;;;8.62;88.88
52693;BME280;68218;51.012;-1.648;2023-05-01T03:14:21;100779.78;;;8.57;88.41
52693;BME280;68218;51.012;-1.648;2023-05-01T03:16:46;100773.00;;;8.54;88.67
52693;BME280;68218;51.012;-1.648;2023-05-01T03:19:12;100781.06;;;8.54;88.78
52693;BME280;68218;51.012;-1.648;2023-05-01T03:21:38;100768.81;;;8.47;89.33
52693;BME280;68218;51.012;-1.648;2023-05-01T03:24:03;100768.31;;;8.50;89.43
52693;BME280;68218;51.012;-1.648;2023-05-01T03:26:28;100783.16;;;8.52;90.29
52693;BME280;68218;51.012;-1.648;2023-05-01T03:28:54;100772.53;;;8.46;89.65
52693;BME280;68218;51.012;-1.648;2023-05-01T03:31:19;100783.97;;;8.53;89.13
52693;BME280;68218;51.012;-1.648;2023-05-01T03:33:46;100773.44;;;8.39;88.76
52693;BME280;68218;51.012;-1.648;2023-05-01T03:36:12;100776.94;;;8.40;88.65
52693;BME280;68218;51.012;-1.648;2023-05-01T03:38:38;100782.81;;;8.49;89.25
52693;BME280;68218;51.012;-1.648;2023-05-01T03:41:03;100789.81;;;8.50;89.31
52693;BME280;68218;51.012;-1.648;2023-05-01T03:43:29;100783.97;;;8.53;90.02
52693;BME280;68218;51.012;-1.648;2023-05-01T03:45:55;100769.25;;;8.55;90.49
52693;BME280;68218;51.012;-1.648;2023-05-01T03:48:21;100783.59;;;8.73;90.81
52693;BME280;68218;51.012;-1.648;2023-05-01T03:50:47;100784.28;;;8.80;90.82
52693;BME280;68218;51.012;-1.648;2023-05-01T03:53:12;100773.53;;;8.80;92.09
52693;BME280;68218;51.012;-1.648;2023-05-01T03:55:38;100783.47;;;8.79;93.30
52693;BME280;68218;51.012;-1.648;2023-05-01T03:58:04;100777.69;;;8.99;92.76
52693;BME280;68218;51.012;-1.648;2023-05-01T04:00:30;100780.84;;;9.08;92.30
52693;BME280;68218;51.012;-1.648;2023-05-01T04:02:56;100778.50;;;9.00;92.90
52693;BME280;68218;51.012;-1.648;2023-05-01T04:05:22;100776.03;;;9.10;92.17
52693;BME280;68218;51.012;-1.648;2023-05-01T04:07:47;100768.59;;;9.29;91.49
52693;BME280;68218;51.012;-1.648;2023-05-01T04:10:12;100764.75;;;9.42;90.99
52693;BME280;68218;51.012;-1.648;2023-05-01T04:12:38;100772.94;;;9.47;90.79
52693;BME280;68218;51.012;-1.648;2023-05-01T04:15:03;100772.06;;;9.59;90.17
52693;BME280;68218;51.012;-1.648;2023-05-01T04:17:30;100775.41;;;9.66;89.80
52693;BME280;68218;51.012;-1.648;2023-05-01T04:19:56;100776.81;;;9.68;89.87
52693;BME280;68218;51.012;-1.648;2023-05-01T04:22:21;100771.19;;;9.70;89.61
52693;BME280;68218;51.012;-1.648;2023-05-01T04:24:47;100773.69;;;9.77;89.41
52693;BME280;68218;51.012;-1.648;2023-05-01T04:27:13;100764.00;;;9.75;89.58
52693;BME280;68218;51.012;-1.648;2023-05-01T04:29:38;100758.38;;;9.77;89.81
52693;BME280;68218;51.012;-1.648;2023-05-01T04:32:04;100759.44;;;9.76;90.10
52693;BME280;68218;51.012;-1.648;2023-05-01T04:34:29;100756.91;;;9.86;89.93
52693;BME280;68218;51.012;-1.648;2023-05-01T04:36:55;100751.50;;;9.86;89.69
52693;BME280;68218;51.012;-1.648;2023-05-01T04:39:23;100750.53;;;9.92;89.65
52693;BME280;68218;51.012;-1.648;2023-05-01T04:41:49;100745.25;;;9.98;89.26
52693;BME280;68218;51.012;-1.648;2023-05-01T04:44:14;100746.53;;;9.95;89.51
52693;BME280;68218;51.012;-1.648;2023-05-01T04:46:40;100750.13;;;10.01;89.40
52693;BME280;68218;51.012;-1.648;2023-05-01T04:49:05;100758.16;;;9.96;89.40
52693;BME280;68218;51.012;-1.648;2023-05-01T04:51:31;100764.97;;;10.03;89.42
52693;BME280;68218;51.012;-1.648;2023-05-01T04:53:57;100755.69;;;10.11;89.40
52693;BME280;68218;51.012;-1.648;2023-05-01T04:56:24;100759.75;;;10.13;88.94
52693;BME280;68218;51.012;-1.648;2023-05-01T04:58:49;100750.28;;;10.11;89.41
52693;BME280;68218;51.012;-1.648;2023-05-01T05:01:15;100752.53;;;10.19;89.14
52693;BME280;68218;51.012;-1.648;2023-05-01T05:03:40;100750.28;;;10.11;89.29
52693;BME280;68218;51.012;-1.648;2023-05-01T05:06:06;100756.00;;;10.15;89.41
52693;BME280;68218;51.012;-1.648;2023-05-01T05:08:32;100753.69;;;10.23;88.90
52693;BME280;68218;51.012;-1.648;2023-05-01T05:10:58;100749.59;;;10.21;88.36
52693;BME280;68218;51.012;-1.648;2023-05-01T05:13:26;100750.84;;;10.13;88.58
52693;BME280;68218;51.012;-1.648;2023-05-01T05:15:52;100748.66;;;10.10;88.66
52693;BME280;68218;51.012;-1.648;2023-05-01T05:18:18;100753.88;;;10.17;88.79
52693;BME280;68218;51.012;-1.648;2023-05-01T05:20:43;100743.81;;;10.12;89.12
52693;BME280;68218;51.012;-1.648;2023-05-01T05:23:09;100744.97;;;10.16;89.26
52693;BME280;68218;51.012;-1.648;2023-05-01T05:25:34;100752.56;;;10.36;88.58
52693;BME280;68218;51.012;-1.648;2023-05-01T05:28:00;100755.50;;;10.35;88.51
52693;BME280;68218;51.012;-1.648;2023-05-01T05:30:26;100760.41;;;10.38;88.99
52693;BME280;68218;51.012;-1.648;2023-05-01T05:32:51;100759.41;;;10.44;88.96
52693;BME280;68218;51.012;-1.648;2023-05-01T05:35:17;100766.34;;;10.40;88.11
52693;BME280;68218;51.012;-1.648;2023-05-01T05:37:43;100755.28;;;10.58;87.84
52693;BME280;68218;51.012;-1.648;2023-05-01T05:40:09;100762.81;;;10.56;88.22
52693;BME280;68218;51.012;-1.648;2023-05-01T05:42:35;100763.56;;;10.74;88.21
52693;BME280;68218;51.012;-1.648;2023-05-01T05:45:00;100768.97;;;10.96;87.65
52693;BME280;68218;51.012;-1.648;2023-05-01T05:47:26;100764.94;;;10.98;87.26
52693;BME280;68218;51.012;-1.648;2023-05-01T05:49:51;100776.88;;;11.02;87.15
52693;BME280;68218;51.012;-1.648;2023-05-01T05:52:17;100774.47;;;11.28;86.94
52693;BME280;68218;51.012;-1.648;2023-05-01T05:54:42;100773.53;;;11.44;86.14
52693;BME280;68218;51.012;-1.648;2023-05-01T05:57:08;100760.72;;;11.57;85.51
52693;BME280;68218;51.012;-1.648;2023-05-01T05:59:33;100774.28;;;11.62;85.19
52693;BME280;68218;51.012;-1.648;2023-05-01T06:01:59;100767.56;;;11.70;85.40
52693;BME280;68218;51.012;-1.648;2023-05-01T06:04:25;100779.88;;;11.55;84.00
52693;BME280;68218;51.012;-1.648;2023-05-01T06:06:50;100765.66;;;11.38;86.14
52693;BME280;68218;51.012;-1.648;2023-05-01T06:09:16;100768.47;;;11.48;84.84
52693;BME280;68218;51.012;-1.648;2023-05-01T06:11:43;100767.63;;;11.48;84.75
52693;BME280;68218;51.012;-1.648;2023-05-01T06:14:09;100771.53;;;11.57;84.79
52693;BME280;68218;51.012;-1.648;2023-05-01T06:16:35;100772.19;;;11.42;85.17
52693;BME280;68218;51.012;-1.648;2023-05-01T06:19:00;100767.78;;;11.36;84.93
52693;BME280;68218;51.012;-1.648;2023-05-01T06:21:26;100770.38;;;11.53;85.15
52693;BME280;68218;51.012;-1.648;2023-05-01T06:23:52;100767.44;;;11.27;85.14
52693;BME280;68218;51.012;-1.648;2023-05-01T06:26:17;100764.31;;;11.40;85.82
52693;BME280;68218;51.012;-1.648;2023-05-01T06:28:43;100764.78;;;11.32;85.88
52693;BME280;68218;51.012;-1.648;2023-05-01T06:31:08;100780.34;;;11.47;85.79
52693;BME280;68218;51.012;-1.648;2023-05-01T06:33:33;100773.63;;;11.55;85.64
52693;BME280;68218;51.012;-1.648;2023-05-01T06:36:00;100775.94;;;11.68;85.36
52693;BME280;68218;51.012;-1.648;2023-05-01T06:38:26;100785.06;;;11.62;84.63
52693;BME280;68218;51.012;-1.648;2023-05-01T06:40:51;100777.78;;;11.62;84.86
52693;BME280;68218;51.012;-1.648;2023-05-01T06:43:17;100786.53;;;11.75;84.76
52693;BME280;68218;51.012;-1.648;2023-05-01T06:45:42;100788.16;;;11.76;84.43
52693;BME280;68218;51.012;-1.648;2023-05-01T06:48:08;100796.66;;;11.90;85.09
52693;BME280;68218;51.012;-1.648;2023-05-01T06:50:33;100793.28;;;11.72;84.03
52693;BME280;68218;51.012;-1.648;2023-05-01T06:52:58;100790.97;;;11.86;84.75
52693;BME280;68218;51.012;-1.648;2023-05-01T06:55:25;100802.94;;;11.95;83.98
52693;BME280;68218;51.012;-1.648;2023-05-01T06:57:51;100803.75;;;11.96;84.17
52693;BME280;68218;51.012;-1.648;2023-05-01T07:00:17;100799.16;;;11.91;84.19
52693;BME280;68218;51.012;-1.648;2023-05-01T07:02:44;100802.81;;;12.12;84.13
52693;BME280;68218;51.012;-1.648;2023-05-01T07:05:10;100805.75;;;12.06;83.33
52693;BME280;68218;51.012;-1.648;2023-05-01T07:07:35;100798.50;;;12.16;84.25
52693;BME280;68218;51.012;-1.648;2023-05-01T07:10:01;100807.31;;;12.34;83.50
52693;BME280;68218;51.012;-1.648;2023-05-01T07:12:27;100805.09;;;12.26;82.81
52693;BME280;68218;51.012;-1.648;2023-05-01T07:14:53;100796.66;;;12.17;83.03
52693;BME280;68218;51.012;-1.648;2023-05-01T07:17:21;100807.09;;;12.41;83.40
52693;BME280;68218;51.012;-1.648;2023-05-01T07:19:46;100811.16;;;12.43;83.02
52693;BME280;68218;51.012;-1.648;2023-05-01T07:22:12;100807.38;;;12.44;82.53
52693;BME280;68218;51.012;-1.648;2023-05-01T07:24:37;100807.34;;;12.39;82.72
52693;BME280;68218;51.012;-1.648;2023-05-01T07:27:03;100814.72;;;12.54;82.29
52693;BME280;68218;51.012;-1.648;2023-05-01T07:29:28;100820.25;;;12.74;81.97
52693;BME280;68218;51.012;-1.648;2023-05-01T07:31:54;100809.44;;;12.74;81.29
52693;BME280;68218;51.012;-1.648;2023-05-01T07:34:19;100817.81;;;12.73;81.51
52693;BME280;68218;51.012;-1.648;2023-05-01T07:36:45;100812.00;;;13.02;82.12
52693;BME280;68218;51.012;-1.648;2023-05-01T07:39:10;100823.69;;;13.13;81.31
52693;BME280;68218;51.012;-1.648;2023-05-01T07:41:36;100829.31;;;12.96;80.29
52693;BME280;68218;51.012;-1.648;2023-05-01T07:44:01;100835.25;;;12.92;79.54
52693;BME280;68218;51.012;-1.648;2023-05-01T07:46:28;100834.50;;;13.02;81.17
52693;BME280;68218;51.012;-1.648;2023-05-01T07:48:53;100830.94;;;12.97;80.48
52693;BME280;68218;51.012;-1.648;2023-05-01T07:51:19;100829.09;;;13.07;80.56
52693;BME280;68218;51.012;-1.648;2023-05-01T07:53:44;100830.78;;;13.29;80.49
52693;BME280;68218;51.012;-1.648;2023-05-01T07:56:11;100831.38;;;13.36;79.91
52693;BME280;68218;51.012;-1.648;2023-05-01T07:58:37;100814.63;;;13.55;78.76
52693;BME280;68218;51.012;-1.648;2023-05-01T08:01:03;100828.16;;;13.49;79.59
52693;BME280;68218;51.012;-1.648;2023-05-01T08:03:30;100828.13;;;13.34;78.76
52693;BME280;68218;51.012;-1.648;2023-05-01T08:05:56;100827.00;;;13.25;78.83
52693;BME280;68218;51.012;-1.648;2023-05-01T08:08:21;100826.94;;;13.09;79.54
52693;BME280;68218;51.012;-1.648;2023-05-01T08:10:47;100823.81;;;13.43;79.04
52693;BME280;68218;51.012;-1.648;2023-05-01T08:13:13;100825.78;;;13.74;79.04
52693;BME280;68218;51.012;-1.648;2023-05-01T08:15:38;100827.16;;;13.92;78.93
52693;BME280;68218;51.012;-1.648;2023-05-01T08:18:07;100825.78;;;14.04;78.54
52693;BME280;68218;51.012;-1.648;2023-05-01T08:20:34;100826.88;;;13.88;77.78
52693;BME280;68218;51.012;-1.648;2023-05-01T08:23:00;100825.78;;;13.74;77.76
52693;BME280;68218;51.012;-1.648;2023-05-01T08:25:25;100828.50;;;13.79;78.35
52693;BME280;68218;51.012;-1.648;2023-05-01T08:27:51;100836.06;;;13.61;78.28
52693;BME280;68218;51.012;-1.648;2023-05-01T08:30:16;100833.13;;;13.89;77.85
52693;BME280;68218;51.012;-1.648;2023-05-01T08:32:42;100835.84;;;14.04;76.80
52693;BME280;68218;51.012;-1.648;2023-05-01T08:35:07;100841.53;;;14.23;76.48
52693;BME280;68218;51.012;-1.648;2023-05-01T08:37:33;100842.88;;;13.95;76.74
52693;BME280;68218;51.012;-1.648;2023-05-01T08:39:59;100837.19;;;14.17;76.86
52693;BME280;68218;51.012;-1.648;2023-05-01T08:42:24;100837.44;;;14.41;76.06
52693;BME280;68218;51.012;-1.648;2023-05-01T08:44:52;100839.88;;;14.32;75.12
52693;BME280;68218;51.012;-1.648;2023-05-01T08:47:20;100848.03;;;14.42;75.63
52693;BME280;68218;51.012;-1.648;2023-05-01T08:49:46;100833.91;;;14.40;73.93
52693;BME280;68218;51.012;-1.648;2023-05-01T08:52:14;100837.72;;;14.50;74.83
52693;BME280;68218;51.012;-1.648;2023-05-01T08:54:44;100841.25;;;14.35;75.69
52693;BME280;68218;51.012;-1.648;2023-05-01T08:57:11;100841.00;;;14.31;74.31
52693;BME280;68218;51.012;-1.648;2023-05-01T08:59:37;100844.50;;;14.27;75.03
52693;BME280;68218;51.012;-1.648;2023-05-01T09:02:05;100844.78;;;14.25;75.03
52693;BME280;68218;51.012;-1.648;2023-05-01T09:04:33;100847.50;;;14.35;73.76
52693;BME280;68218;51.012;-1.648;2023-05-01T09:07:00;100852.09;;;14.45;74.42
52693;BME280;68218;51.012;-1.648;2023-05-01T09:09:27;100850.72;;;14.63;72.97
52693;BME280;68218;51.012;-1.648;2023-05-01T09:14:30;100845.56;;;15.47;71.11
52693;BME280;68218;51.012;-1.648;2023-05-01T09:16:56;100843.63;;;15.53;69.67
52693;BME280;68218;51.012;-1.648;2023-05-01T09:19:22;100851.50;;;15.54;71.84
52693;BME280;68218;51.012;-1.648;2023-05-01T09:21:47;100843.84;;;15.62;69.82
52693;BME280;68218;51.012;-1.648;2023-05-01T09:24:13;100860.78;;;15.93;69.76
52693;BME280;68218;51.012;-1.648;2023-05-01T09:26:39;100857.41;;;15.67;68.82
52693;BME280;68218;51.012;-1.648;2023-05-01T09:29:06;100857.13;;;15.68;69.92
52693;BME280;68218;51.012;-1.648;2023-05-01T09:31:34;100860.44;;;15.55;68.96
52693;BME280;68218;51.012;-1.648;2023-05-01T09:34:02;100848.47;;;15.61;68.77
52693;BME280;68218;51.012;-1.648;2023-05-01T09:36:30;100847.34;;;16.07;67.62
52693;BME280;68218;51.012;-1.648;2023-05-01T09:38:59;100855.94;;;15.85;68.30
52693;BME280;68218;51.012;-1.648;2023-05-01T09:41:26;100851.44;;;15.65;65.98
52693;BME280;68218;51.012;-1.648;2023-05-01T09:43:53;100856.06;;;15.59;68.19
52693;BME280;68218;51.012;-1.648;2023-05-01T09:46:19;100852.06;;;15.46;66.39
52693;BME280;68218;51.012;-1.648;2023-05-01T09:48:57;100851.47;;;15.60;67.68
52693;BME280;68218;51.012;-1.648;2023-05-01T09:51:28;100866.09;;;15.64;67.98
52693;BME280;68218;51.012;-1.648;2023-05-01T09:54:01;100863.28;;;15.84;69.93
52693;BME280;68218;51.012;-1.648;2023-05-01T09:56:29;100870.97;;;15.72;68.24
52693;BME280;68218;51.012;-1.648;2023-05-01T09:58:57;100863.59;;;16.17;68.04
52693;BME280;68218;51.012;-1.648;2023-05-01T10:01:38;100853.94;;;17.13;65.78
52693;BME280;68218;51.012;-1.648;2023-05-01T10:04:03;100863.22;;;17.12;62.44
52693;BME280;68218;51.012;-1.648;2023-05-01T10:06:29;100868.19;;;16.80;69.96
52693;BME280;68218;51.012;-1.648;2023-05-01T10:08:55;100865.81;;;16.44;70.34
52693;BME280;68218;51.012;-1.648;2023-05-01T10:11:20;100857.94;;;16.08;70.41
52693;BME280;68218;51.012;-1.648;2023-05-01T10:14:05;100862.22;;;16.20;72.88
52693;BME280;68218;51.012;-1.648;2023-05-01T10:16:34;100862.84;;;16.41;72.80
52693;BME280;68218;51.012;-1.648;2023-05-01T10:19:00;100873.22;;;16.97;69.25
52693;BME280;68218;51.012;-1.648;2023-05-01T10:21:26;100864.78;;;17.61;68.13
52693;BME280;68218;51.012;-1.648;2023-05-01T10:23:52;100865.38;;;18.15;67.59
52693;BME280;68218;51.012;-1.648;2023-05-01T10:26:20;100873.31;;;17.54;64.23
52693;BME280;68218;51.012;-1.648;2023-05-01T10:28:47;100869.47;;;17.36;67.43
52693;BME280;68218;51.012;-1.648;2023-05-01T10:31:14;100871.72;;;16.81;71.37
52693;BME280;68218;51.012;-1.648;2023-05-01T10:33:41;100875.00;;;16.19;72.01
52693;BME280;68218;51.012;-1.648;2023-05-01T10:36:11;100878.53;;;15.85;71.22
52693;BME280;68218;51.012;-1.648;2023-05-01T10:38:39;100870.47;;;15.65;69.89
52693;BME280;68218;51.012;-1.648;2023-05-01T10:41:10;100874.38;;;15.93;67.53
52693;BME280;68218;51.012;-1.648;2023-05-01T10:43:35;100870.81;;;16.61;69.69
52693;BME280;68218;51.012;-1.648;2023-05-01T10:53:36;100877.81;;;17.64;61.87
52693;BME280;68218;51.012;-1.648;2023-05-01T10:56:03;100862.28;;;18.36;58.92
52693;BME280;68218;51.012;-1.648;2023-05-01T11:03:52;100866.19;;;17.77;61.04
52693;BME280;68218;51.012;-1.648;2023-05-01T11:06:17;100869.94;;;17.63;61.90
52693;BME280;68218;51.012;-1.648;2023-05-01T11:08:43;100871.22;;;17.03;59.07
52693;BME280;68218;51.012;-1.648;2023-05-01T11:14:06;100882.34;;;17.07;59.33
52693;BME280;68218;51.012;-1.648;2023-05-01T11:19:08;100882.97;;;17.47;57.32
52693;BME280;68218;51.012;-1.648;2023-05-01T11:21:36;100873.78;;;17.81;59.83
52693;BME280;68218;51.012;-1.648;2023-05-01T11:24:03;100870.38;;;17.51;56.22
52693;BME280;68218;51.012;-1.648;2023-05-01T11:26:30;100880.16;;;17.33;60.56
52693;BME280;68218;51.012;-1.648;2023-05-01T11:28:58;100871.13;;;17.56;58.38
52693;BME280;68218;51.012;-1.648;2023-05-01T11:31:27;100873.13;;;18.08;54.39
52693;BME280;68218;51.012;-1.648;2023-05-01T11:33:59;100869.06;;;18.05;53.20
52693;BME280;68218;51.012;-1.648;2023-05-01T11:36:26;100869.69;;;18.96;54.30
52693;BME280;68218;51.012;-1.648;2023-05-01T11:38:56;100859.44;;;18.27;53.24
52693;BME280;68218;51.012;-1.648;2023-05-01T11:41:24;100860.22;;;17.94;53.15
52693;BME280;68218;51.012;-1.648;2023-05-01T11:43:51;100876.03;;;18.30;54.42
52693;BME280;68218;51.012;-1.648;2023-05-01T11:46:25;100875.06;;;18.54;53.64
52693;BME280;68218;51.012;-1.648;2023-05-01T11:48:59;100872.44;;;17.59;56.55
52693;BME280;68218;51.012;-1.648;2023-05-01T11:51:29;100865.31;;;18.34;58.29
52693;BME280;68218;51.012;-1.648;2023-05-01T11:54:04;100873.28;;;18.63;58.09
52693;BME280;68218;51.012;-1.648;2023-05-01T11:56:31;100867.72;;;18.22;55.66
52693;BME280;68218;51.012;-1.648;2023-05-01T11:58:59;100868.00;;;18.53;53.32
52693;BME280;68218;51.012;-1.648;2023-05-01T12:01:34;100869.81;;;20.59;47.32
52693;BME280;68218;51.012;-1.648;2023-05-01T12:04:01;100869.25;;;21.20;46.67
52693;BME280;68218;51.012;-1.648;2023-05-01T12:06:43;100867.03;;;20.82;46.35
52693;BME280;68218;51.012;-1.648;2023-05-01T12:09:23;100872.28;;;21.58;44.68
52693;BME280;68218;51.012;-1.648;2023-05-01T12:11:53;100867.38;;;20.04;47.52
52693;BME280;68218;51.012;-1.648;2023-05-01T12:14:19;100874.03;;;19.24;51.45
52693;BME280;68218;51.012;-1.648;2023-05-01T12:16:46;100880.00;;;19.26;53.10
52693;BME280;68218;51.012;-1.648;2023-05-01T12:19:13;100888.06;;;19.59;52.49
52693;BME280;68218;51.012;-1.648;2023-05-01T12:21:39;100887.28;;;19.03;52.59
52693;BME280;68218;51.012;-1.648;2023-05-01T12:24:12;100892.75;;;19.17;53.82
52693;BME280;68218;51.012;-1.648;2023-05-01T12:26:42;100891.56;;;18.96;53.04
52693;BME280;68218;51.012;-1.648;2023-05-01T12:29:08;100891.56;;;19.09;52.00
52693;BME280;68218;51.012;-1.648;2023-05-01T12:31:35;100896.53;;;18.61;52.37
52693;BME280;68218;51.012;-1.648;2023-05-01T12:34:05;100893.38;;;18.53;54.08
52693;BME280;68218;51.012;-1.648;2023-05-01T12:36:33;100901.06;;;18.19;52.68
52693;BME280;68218;51.012;-1.648;2023-05-01T12:41:42;100887.31;;;17.91;54.09
52693;BME280;68218;51.012;-1.648;2023-05-01T12:44:18;100885.72;;;17.85;53.16
52693;BME280;68218;51.012;-1.648;2023-05-01T12:46:51;100897.94;;;17.92;53.14
52693;BME280;68218;51.012;-1.648;2023-05-01T12:49:18;100891.19;;;17.85;54.88
52693;BME280;68218;51.012;-1.648;2023-05-01T12:51:47;100911.69;;;17.82;56.24
52693;BME280;68218;51.012;-1.648;2023-05-01T12:56:49;100911.44;;;17.59;57.88
52693;BME280;68218;51.012;-1.648;2023-05-01T12:59:25;100909.97;;;17.67;57.56
52693;BME280;68218;51.012;-1.648;2023-05-01T13:01:59;100915.78;;;16.93;57.28
52693;BME280;68218;51.012;-1.648;2023-05-01T13:04:25;100920.84;;;16.71;57.84
52693;BME280;68218;51.012;-1.648;2023-05-01T13:06:52;100919.38;;;16.54;57.84
52693;BME280;68218;51.012;-1.648;2023-05-01T13:09:23;100922.56;;;16.61;60.26
52693;BME280;68218;51.012;-1.648;2023-05-01T13:14:40;100929.56;;;16.73;58.73
52693;BME280;68218;51.012;-1.648;2023-05-01T13:17:09;100930.28;;;17.13;58.05
52693;BME280;68218;51.012;-1.648;2023-05-01T13:19:36;100926.63;;;17.66;56.40
52693;BME280;68218;51.012;-1.648;2023-05-01T13:22:03;100917.47;;;18.98;54.48
52693;BME280;68218;51.012;-1.648;2023-05-01T13:24:39;100913.78;;;18.75;51.57
52693;BME280;68218;51.012;-1.648;2023-05-01T13:27:10;100914.72;;;18.84;52.82